Time,TemperatureF,DewpointF,PressureIn,WindDirection,WindDirectionDegrees,WindSpeedMPH,WindSpeedGustMPH,Humidity,HourlyPrecipIn,Conditions,Clouds,dailyrainin,SoftwareType,DateUTC
2013-05-30 00:00:00,57.8,49.9,29.90,WSW,237,11.5,11.5,75,0.00,CLR,,0.00,WeatherDisplay:10.37,2013-05-29 22:00:00,
2013-05-30 00:05:00,57.7,49.8,29.90,WSW,256,12.7,12.7,75,0.00,CLR,,0.00,WeatherDisplay:10.37,2013-05-29 22:05:00,
2013-05-30 00:10:00,57.7,49.5,29.90,WSW,258,13.8,13.8,74,0.00,CLR,,0.00,WeatherDisplay:10.37,2013-05-29 22:10:00,
2013-05-30 00:15:00,57.7,49.5,29.90,WSW,254,12.7,12.7,74,0.00,CLR,,0.00,WeatherDisplay:10.37,2013-05-29 22:15:00,
2013-05-30 00:20:00,57.7,49.5,29.90,WSW,249,11.5,11.5,74,0.00,CLR,,0.00,WeatherDisplay:10.37,2013-05-29 22:20:00,
2013-05-30 00:25:00,57.7,49.5,29.90,WSW,251,11.0,11.0,74,0.00,CLR,,0.00,WeatherDisplay:10.37,2013-05-29 22:25:00,
2013-05-30 00:30:00,57.7,49.5,29.90,WSW,256,10.4,10.4,74,0.00,CLR,,0.00,WeatherDisplay:10.37,2013-05-29 22:30:00,
2013-05-30 00:35:00,57.8,49.6,29.90,WSW,242,10.4,10.4,74,0.00,CLR,,0.00,WeatherDisplay:10.37,2013-05-29 22:35:00,
2013-05-30 00:40:00,58.0,49.8,29.90,West,260,10.4,10.4,74,0.00,CLR,,0.00,WeatherDisplay:10.37,2013-05-29 22:40:00,
2013-05-30 00:45:00,58.1,49.9,29.90,WSW,245,11.5,11.5,74,0.00,CLR,,0.00,WeatherDisplay:10.37,2013-05-29 22:45:00,
2013-05-30 00:50:00,58.3,50.0,29.90,WSW,254,11.5,11.5,74,0.00,CLR,,0.00,WeatherDisplay:10.37,2013-05-29 22:50:00,
2013-05-30 00:55:00,58.2,50.0,29.90,WSW,251,10.4,10.4,74,0.00,CLR,,0.00,WeatherDisplay:10.37,2013-05-29 22:55:00,
2013-05-30 01:00:00,58.2,50.3,29.90,West,262,10.4,10.4,75,0.00,CLR,,0.00,WeatherDisplay:10.37,2013-05-29 23:00:00,
2013-05-30 01:05:00,58.3,50.4,29.90,WSW,245,10.4,10.4,75,0.00,CLR,,0.00,WeatherDisplay:10.37,2013-05-29 23:05:00,
2013-05-30 01:10:00,58.5,50.6,29.89,WSW,250,9.2,9.2,75,0.00,CLR,,0.00,WeatherDisplay:10.37,2013-05-29 23:10:00,
2013-05-30 01:15:00,58.5,50.6,29.89,WSW,249,8.1,8.1,75,0.00,CLR,,0.00,WeatherDisplay:10.37,2013-05-29 23:15:00,
2013-05-30 01:20:00,58.6,51.1,29.89,WSW,245,9.2,9.2,76,0.00,CLR,,0.00,WeatherDisplay:10.37,2013-05-29 23:20:00,
2013-05-30 01:25:00,58.7,51.2,29.89,West,277,9.2,9.2,76,0.00,CLR,,0.00,WeatherDisplay:10.37,2013-05-29 23:25:00,
2013-05-30 01:30:00,58.6,51.1,29.89,West,276,8.1,8.1,76,0.00,CLR,,0.00,WeatherDisplay:10.37,2013-05-29 23:30:00,
2013-05-30 01:35:00,58.5,51.0,29.89,West,270,6.9,6.9,76,0.00,CLR,,0.00,WeatherDisplay:10.37,2013-05-29 23:35:00,
2013-05-30 01:40:00,58.5,51.0,29.89,West,259,6.9,6.9,76,0.00,CLR,,0.00,WeatherDisplay:10.37,2013-05-29 23:40:00,
2013-05-30 01:45:00,58.6,51.4,29.88,West,270,8.1,8.1,77,0.00,CLR,,0.00,WeatherDisplay:10.37,2013-05-29 23:45:00,
2013-05-30 01:50:00,58.7,51.2,29.88,WSW,241,7.0,7.0,76,0.00,CLR,,0.00,WeatherDisplay:10.37,2013-05-29 23:50:00,
2013-05-30 01:55:00,58.7,51.2,29.88,WSW,249,6.9,6.9,76,0.00,CLR,,0.00,WeatherDisplay:10.37,2013-05-29 23:55:00,
2013-05-30 02:00:00,58.8,51.2,29.88,WSW,237,8.1,8.1,76,0.00,CLR,,0.00,WeatherDisplay:10.37,2013-05-30 00:00:00,
2013-05-30 02:05:00,58.8,51.2,29.88,WSW,246,8.1,8.1,76,0.00,CLR,,0.00,WeatherDisplay:10.37,2013-05-30 00:05:00,
2013-05-30 02:10:00,58.7,51.2,29.88,WSW,239,8.1,8.1,76,0.00,CLR,,0.00,WeatherDisplay:10.37,2013-05-30 00:10:00,
2013-05-30 02:15:00,58.7,51.5,29.87,SW,235,8.1,8.1,77,0.00,CLR,,0.00,WeatherDisplay:10.37,2013-05-30 00:15:00,
2013-05-30 02:20:00,58.6,51.4,29.87,WSW,253,8.1,8.1,77,0.00,CLR,,0.00,WeatherDisplay:10.37,2013-05-30 00:20:00,
2013-05-30 02:25:00,58.7,51.5,29.87,WSW,243,8.1,8.1,77,0.00,CLR,,0.00,WeatherDisplay:10.37,2013-05-30 00:25:00,
2013-05-30 02:30:00,58.8,51.6,29.87,WSW,251,6.9,6.9,77,0.00,CLR,,0.00,WeatherDisplay:10.37,2013-05-30 00:30:00,
2013-05-30 02:35:00,58.9,51.7,29.86,SW,235,8.1,8.1,77,0.00,CLR,,0.00,WeatherDisplay:10.37,2013-05-30 00:35:00,
2013-05-30 02:40:00,58.9,51.7,29.86,SW,236,9.2,9.2,77,0.00,CLR,,0.00,WeatherDisplay:10.37,2013-05-30 00:40:00,
2013-05-30 02:45:00,58.9,51.7,29.87,WSW,238,8.1,8.1,77,0.00,CLR,,0.00,WeatherDisplay:10.37,2013-05-30 00:45:00,
2013-05-30 02:50:00,58.8,51.6,29.86,SW,219,6.9,6.9,77,0.00,CLR,,0.00,WeatherDisplay:10.37,2013-05-30 00:50:00,
2013-05-30 02:55:00,58.7,51.9,29.86,SW,219,7.0,7.0,78,0.00,CLR,,0.00,WeatherDisplay:10.37,2013-05-30 00:55:00,
2013-05-30 03:00:00,58.5,51.7,29.86,SW,226,5.8,5.8,78,0.00,CLR,,0.00,WeatherDisplay:10.37,2013-05-30 01:00:00,
2013-05-30 03:05:00,58.5,52.0,29.86,SW,229,5.8,5.8,79,0.00,CLR,,0.00,WeatherDisplay:10.37,2013-05-30 01:05:00,
2013-05-30 03:10:00,58.7,52.2,29.86,SW,233,5.8,5.8,79,0.00,CLR,,0.00,WeatherDisplay:10.37,2013-05-30 01:10:00,
2013-05-30 03:15:00,58.7,52.2,29.86,WSW,246,5.8,5.8,79,0.00,CLR,,0.00,WeatherDisplay:10.37,2013-05-30 01:15:00,
2013-05-30 03:20:00,58.7,52.2,29.86,SW,232,8.1,8.1,79,0.00,CLR,,0.00,WeatherDisplay:10.37,2013-05-30 01:20:00,
2013-05-30 03:25:00,58.7,52.2,29.86,SW,229,8.1,8.1,79,0.00,CLR,,0.00,WeatherDisplay:10.37,2013-05-30 01:25:00,
2013-05-30 03:30:00,58.7,52.2,29.85,SW,226,8.1,8.1,79,0.00,CLR,,0.00,WeatherDisplay:10.37,2013-05-30 01:30:00,
2013-05-30 03:35:00,58.5,52.0,29.85,West,261,5.0,5.0,79,0.00,CLR,,0.00,WeatherDisplay:10.37,2013-05-30 01:35:00,
2013-05-30 03:40:00,58.5,52.4,29.85,SW,231,5.8,5.8,80,0.00,CLR,,0.00,WeatherDisplay:10.37,2013-05-30 01:40:00,
2013-05-30 03:45:00,58.5,52.4,29.85,SW,222,5.8,5.8,80,0.00,CLR,,0.00,WeatherDisplay:10.37,2013-05-30 01:45:00,
2013-05-30 03:50:00,58.6,52.4,29.85,SW,222,5.8,5.8,80,0.00,CLR,,0.00,WeatherDisplay:10.37,2013-05-30 01:50:00,
2013-05-30 03:55:00,58.6,52.4,29.85,SW,222,5.8,5.8,80,0.00,CLR,,0.00,WeatherDisplay:10.37,2013-05-30 01:55:00,
2013-05-30 04:00:00,58.7,52.9,29.84,SW,218,5.0,5.0,81,0.00,CLR,,0.00,WeatherDisplay:10.37,2013-05-30 02:00:00,
2013-05-30 04:05:00,58.8,53.0,29.84,SW,227,6.0,6.0,81,0.00,CLR,,0.00,WeatherDisplay:10.37,2013-05-30 02:05:00,
2013-05-30 04:10:00,58.7,52.9,29.84,SW,226,8.1,8.1,81,0.00,CLR,,0.00,WeatherDisplay:10.37,2013-05-30 02:10:00,
2013-05-30 04:15:00,58.6,52.8,29.84,WSW,244,6.9,6.9,81,0.00,CLR,,0.00,WeatherDisplay:10.37,2013-05-30 02:15:00,
2013-05-30 04:20:00,58.5,53.0,29.84,West,262,6.9,6.9,82,0.00,CLR,,0.00,WeatherDisplay:10.37,2013-05-30 02:20:00,
2013-05-30 04:25:00,58.4,52.9,29.84,West,272,5.8,5.8,82,0.00,CLR,,0.00,WeatherDisplay:10.37,2013-05-30 02:25:00,
2013-05-30 04:30:00,58.3,53.2,29.84,West,270,6.9,6.9,83,0.00,CLR,,0.00,WeatherDisplay:10.37,2013-05-30 02:30:00,
2013-05-30 04:35:00,58.4,53.3,29.84,WNW,287,5.8,5.8,83,0.00,CLR,,0.00,WeatherDisplay:10.37,2013-05-30 02:35:00,
2013-05-30 04:40:00,58.3,53.2,29.84,WNW,293,5.8,5.8,83,0.00,CLR,,0.00,WeatherDisplay:10.37,2013-05-30 02:40:00,
2013-05-30 04:45:00,58.3,53.2,29.84,WNW,294,5.0,5.0,83,0.00,CLR,,0.00,WeatherDisplay:10.37,2013-05-30 02:45:00,
2013-05-30 04:50:00,58.3,53.5,29.84,WNW,292,5.0,5.0,84,0.00,CLR,,0.00,WeatherDisplay:10.37,2013-05-30 02:50:00,
2013-05-30 04:55:00,58.4,53.6,29.84,WNW,294,3.5,3.5,84,0.00,CLR,,0.00,WeatherDisplay:10.37,2013-05-30 02:55:00,
2013-05-30 05:00:00,58.4,53.6,29.84,WNW,289,5.0,5.0,84,0.00,CLR,,0.00,WeatherDisplay:10.37,2013-05-30 03:00:00,
2013-05-30 05:05:00,58.4,53.6,29.84,WSW,255,5.0,5.0,84,0.00,CLR,,0.00,WeatherDisplay:10.37,2013-05-30 03:05:00,
2013-05-30 05:10:00,58.3,53.5,29.83,WNW,293,3.5,3.5,84,0.00,CLR,,0.00,WeatherDisplay:10.37,2013-05-30 03:10:00,
2013-05-30 05:15:00,58.3,53.8,29.84,West,259,7.0,7.0,85,0.00,CLR,,0.00,WeatherDisplay:10.37,2013-05-30 03:15:00,
2013-05-30 05:20:00,58.5,53.7,29.83,SW,233,6.9,6.9,84,0.00,CLR,,0.00,WeatherDisplay:10.37,2013-05-30 03:20:00,
2013-05-30 05:25:00,58.3,53.5,29.84,West,269,4.6,4.6,84,0.00,CLR,,0.00,WeatherDisplay:10.37,2013-05-30 03:25:00,
2013-05-30 05:30:00,58.2,53.4,29.84,WNW,283,5.8,5.8,84,0.00,CLR,,0.00,WeatherDisplay:10.37,2013-05-30 03:30:00,
2013-05-30 05:35:00,58.2,53.7,29.84,West,263,5.8,5.8,85,0.00,CLR,,0.00,WeatherDisplay:10.37,2013-05-30 03:35:00,
2013-05-30 05:40:00,58.2,53.4,29.84,West,272,5.8,5.8,84,0.00,CLR,,0.00,WeatherDisplay:10.37,2013-05-30 03:40:00,
2013-05-30 05:45:00,58.2,53.7,29.83,West,266,5.0,5.0,85,0.00,CLR,,0.00,WeatherDisplay:10.37,2013-05-30 03:45:00,
2013-05-30 05:50:00,58.2,53.7,29.83,WSW,258,6.0,6.0,85,0.00,CLR,,0.00,WeatherDisplay:10.37,2013-05-30 03:50:00,
2013-05-30 05:55:00,58.3,53.8,29.83,WNW,287,3.5,3.5,85,0.00,CLR,,0.00,WeatherDisplay:10.37,2013-05-30 03:55:00,
2013-05-30 06:00:00,58.4,54.2,29.83,NW,309,6.9,6.9,86,0.00,CLR,,0.00,WeatherDisplay:10.37,2013-05-30 04:00:00,
2013-05-30 06:01:00,58.4,54.2,29.83,West,276,6.9,6.9,86,0.00,CLR,,0.00,WeatherDisplay:10.37,2013-05-30 04:01:00,
2013-05-30 06:06:00,58.5,54.3,29.83,WNW,284,5.8,5.8,86,0.00,CLR,,0.00,WeatherDisplay:10.37,2013-05-30 04:06:00,
2013-05-30 06:11:00,58.4,54.2,29.84,NW,307,6.0,6.0,86,0.00,CLR,,0.00,WeatherDisplay:10.37,2013-05-30 04:11:00,
2013-05-30 06:16:00,58.4,54.2,29.84,WSW,254,4.6,4.6,86,0.00,CLR,,0.00,WeatherDisplay:10.37,2013-05-30 04:16:00,
2013-05-30 06:21:00,58.3,54.1,29.84,WSW,237,5.8,5.8,86,0.00,CLR,,0.00,WeatherDisplay:10.37,2013-05-30 04:21:00,
2013-05-30 06:26:00,58.2,54.0,29.84,West,276,5.8,5.8,86,0.00,CLR,,0.00,WeatherDisplay:10.37,2013-05-30 04:26:00,
2013-05-30 06:31:00,58.2,54.0,29.83,WNW,285,5.0,5.0,86,0.00,CLR,,0.00,WeatherDisplay:10.37,2013-05-30 04:31:00,
2013-05-30 06:36:00,58.1,53.9,29.83,WNW,292,3.5,3.5,86,0.00,CLR,,0.00,WeatherDisplay:10.37,2013-05-30 04:36:00,
2013-05-30 06:41:00,58.2,54.0,29.84,NNW,328,4.6,4.6,86,0.00,CLR,,0.00,WeatherDisplay:10.37,2013-05-30 04:41:00,
2013-05-30 06:46:00,58.2,54.0,29.84,WNW,290,6.9,6.9,86,0.00,CLR,,0.00,WeatherDisplay:10.37,2013-05-30 04:46:00,
2013-05-30 06:51:00,58.1,53.6,29.83,NW,325,8.1,8.1,85,0.00,CLR,,0.00,WeatherDisplay:10.37,2013-05-30 04:51:00,
2013-05-30 06:56:00,57.7,52.9,29.83,NW,324,11.0,11.0,84,0.00,CLR,,0.00,WeatherDisplay:10.37,2013-05-30 04:56:00,
2013-05-30 07:01:00,57.4,52.6,29.84,NW,316,13.0,13.0,84,0.00,CLR,,0.00,WeatherDisplay:10.37,2013-05-30 05:01:00,
2013-05-30 07:06:00,57.2,52.7,29.84,NNW,337,22.0,22.0,85,0.00,CLR,,0.00,WeatherDisplay:10.37,2013-05-30 05:06:00,
2013-05-30 07:11:00,56.2,51.7,29.85,NNW,337,13.8,13.8,85,0.00,CLR,,0.00,WeatherDisplay:10.37,2013-05-30 05:11:00,
2013-05-30 07:16:00,55.8,51.4,29.86,NNW,336,15.0,15.0,85,0.00,CLR,,0.00,WeatherDisplay:10.37,2013-05-30 05:16:00,
2013-05-30 07:21:00,56.0,50.3,29.86,North,8,11.5,11.5,81,0.00,CLR,,0.00,WeatherDisplay:10.37,2013-05-30 05:21:00,
2013-05-30 07:26:00,56.1,49.3,29.86,North,354,12.7,12.7,78,0.00,CLR,,0.00,WeatherDisplay:10.37,2013-05-30 05:26:00,
2013-05-30 07:31:00,56.5,48.7,29.86,NNW,329,10.4,10.4,75,0.00,CLR,,0.00,WeatherDisplay:10.37,2013-05-30 05:31:00,
2013-05-30 07:36:00,56.5,48.3,29.86,NW,305,11.5,11.5,74,0.01,RA,,0.01,WeatherDisplay:10.37,2013-05-30 05:36:00,
2013-05-30 07:41:00,56.2,48.0,29.87,NNW,343,10.4,10.4,74,0.01,RA,,0.01,WeatherDisplay:10.37,2013-05-30 05:41:00,
2013-05-30 07:46:00,56.0,48.2,29.87,NW,322,9.2,9.2,75,0.01,CLR,,0.01,WeatherDisplay:10.37,2013-05-30 05:46:00,
2013-05-30 07:51:00,55.9,48.1,29.88,WNW,298,8.1,8.1,75,0.01,CLR,,0.01,WeatherDisplay:10.37,2013-05-30 05:51:00,
2013-05-30 07:56:00,55.7,47.5,29.88,WNW,285,9.2,9.2,74,0.01,CLR,,0.01,WeatherDisplay:10.37,2013-05-30 05:56:00,
2013-05-30 08:01:00,56.0,46.7,29.88,WNW,293,9.2,9.2,71,0.01,CLR,,0.01,WeatherDisplay:10.37,2013-05-30 06:01:00,
2013-05-30 08:06:00,55.6,48.8,29.89,WSW,254,10.4,10.4,78,0.01,CLR,,0.01,WeatherDisplay:10.37,2013-05-30 06:06:00,
2013-05-30 08:11:00,54.7,49.3,29.89,WSW,251,10.4,10.4,82,0.01,CLR,,0.02,WeatherDisplay:10.37,2013-05-30 06:11:00,
2013-05-30 08:16:00,54.0,49.6,29.89,WSW,249,9.2,9.2,85,0.02,RA,,0.02,WeatherDisplay:10.37,2013-05-30 06:16:00,
2013-05-30 08:21:00,53.6,49.2,29.89,WSW,246,9.2,9.2,85,0.02,RA,,0.02,WeatherDisplay:10.37,2013-05-30 06:21:00,
2013-05-30 08:26:00,53.6,48.9,29.88,SW,225,6.9,6.9,84,0.02,CLR,,0.02,WeatherDisplay:10.37,2013-05-30 06:26:00,
2013-05-30 08:31:00,53.9,48.5,29.88,SW,222,3.5,3.5,82,0.02,CLR,,0.02,WeatherDisplay:10.37,2013-05-30 06:31:00,
2013-05-30 08:36:00,54.2,48.5,29.88,SW,231,2.3,2.3,81,0.01,CLR,,0.02,WeatherDisplay:10.37,2013-05-30 06:36:00,
2013-05-30 08:41:00,54.5,48.1,29.88,WSW,243,4.0,4.0,79,0.01,CLR,,0.02,WeatherDisplay:10.37,2013-05-30 06:41:00,
2013-05-30 08:46:00,54.7,48.3,29.89,West,265,5.8,5.8,79,0.01,CLR,,0.02,WeatherDisplay:10.37,2013-05-30 06:46:00,
2013-05-30 08:51:00,54.9,47.8,29.89,West,262,4.6,4.6,77,0.01,CLR,,0.02,WeatherDisplay:10.37,2013-05-30 06:51:00,
2013-05-30 08:57:00,54.9,47.8,29.89,West,262,3.5,3.5,77,0.01,CLR,,0.02,WeatherDisplay:10.37,2013-05-30 06:57:00,
2013-05-30 09:02:00,55.0,47.2,29.88,West,263,2.3,2.3,75,0.01,CLR,,0.02,WeatherDisplay:10.37,2013-05-30 07:02:00,
2013-05-30 09:07:00,55.1,47.3,29.89,NNW,340,5.0,5.0,75,0.01,CLR,,0.02,WeatherDisplay:10.37,2013-05-30 07:07:00,
2013-05-30 09:12:00,55.5,47.7,29.89,North,354,7.0,7.0,75,0.01,,,0.02,WeatherDisplay:10.37,2013-05-30 07:12:00,
2013-05-30 09:17:00,55.5,47.0,29.89,North,354,9.0,9.0,73,0.00,,,0.02,WeatherDisplay:10.37,2013-05-30 07:17:00,
2013-05-30 09:22:00,55.6,47.8,29.89,NW,310,10.4,10.4,75,0.00,,,0.02,WeatherDisplay:10.37,2013-05-30 07:22:00,
2013-05-30 09:27:00,55.6,47.1,29.89,NNW,345,11.5,11.5,73,0.00,,,0.02,WeatherDisplay:10.37,2013-05-30 07:27:00,
2013-05-30 09:32:00,55.6,47.4,29.89,NNW,335,11.5,11.5,74,0.00,,,0.02,WeatherDisplay:10.37,2013-05-30 07:32:00,
2013-05-30 09:37:00,55.5,47.3,29.89,NW,324,11.5,11.5,74,0.00,,,0.02,WeatherDisplay:10.37,2013-05-30 07:37:00,
2013-05-30 09:42:00,55.6,47.4,29.89,NNW,338,11.5,11.5,74,0.00,,,0.02,WeatherDisplay:10.37,2013-05-30 07:42:00,
2013-05-30 09:47:00,55.7,47.2,29.89,WNW,299,11.5,11.5,73,0.00,,,0.02,WeatherDisplay:10.37,2013-05-30 07:47:00,
2013-05-30 09:52:00,55.8,47.3,29.89,NW,320,11.5,11.5,73,0.00,,,0.02,WeatherDisplay:10.37,2013-05-30 07:52:00,
2013-05-30 09:57:00,55.8,47.3,29.89,WSW,254,11.5,11.5,73,0.00,,,0.02,WeatherDisplay:10.37,2013-05-30 07:57:00,
2013-05-30 10:02:00,55.9,47.7,29.89,NW,306,7.0,7.0,74,0.00,,,0.02,WeatherDisplay:10.37,2013-05-30 08:02:00,
2013-05-30 10:07:00,55.9,47.7,29.89,NW,312,8.1,8.1,74,0.00,,,0.02,WeatherDisplay:10.37,2013-05-30 08:07:00,
2013-05-30 10:12:00,55.8,48.0,29.89,NNW,339,11.5,11.5,75,0.00,,,0.02,WeatherDisplay:10.37,2013-05-30 08:12:00,
2013-05-30 10:17:00,55.9,48.1,29.89,NNW,340,8.1,8.1,75,0.00,,,0.02,WeatherDisplay:10.37,2013-05-30 08:17:00,
2013-05-30 10:22:00,55.8,47.6,29.90,NNE,13,9.2,9.2,74,0.00,,,0.02,WeatherDisplay:10.37,2013-05-30 08:22:00,
2013-05-30 10:27:00,55.9,47.7,29.90,NNW,328,4.0,4.0,74,0.00,,,0.02,WeatherDisplay:10.37,2013-05-30 08:27:00,
2013-05-30 10:32:00,56.0,47.8,29.90,WNW,300,9.2,9.2,74,0.00,,,0.02,WeatherDisplay:10.37,2013-05-30 08:32:00,
2013-05-30 10:37:00,56.1,47.9,29.90,NNW,332,3.5,3.5,74,0.00,,,0.02,WeatherDisplay:10.37,2013-05-30 08:37:00,
2013-05-30 10:42:00,56.4,48.6,29.90,WNW,289,7.0,7.0,75,0.00,,,0.02,WeatherDisplay:10.37,2013-05-30 08:42:00,
2013-05-30 10:47:00,56.3,47.8,29.90,NNW,334,11.5,11.5,73,0.00,,,0.02,WeatherDisplay:10.37,2013-05-30 08:47:00,
2013-05-30 10:52:00,56.4,47.5,29.90,NW,308,9.2,9.2,72,0.00,,,0.02,WeatherDisplay:10.37,2013-05-30 08:52:00,
2013-05-30 10:57:00,56.6,47.7,29.90,NNW,328,5.8,5.8,72,0.00,,,0.02,WeatherDisplay:10.37,2013-05-30 08:57:00,
2013-05-30 11:02:00,56.9,48.3,29.90,NNW,345,3.5,3.5,73,0.00,,,0.02,WeatherDisplay:10.37,2013-05-30 09:02:00,
2013-05-30 11:07:00,57.2,48.3,29.90,NNE,18,3.5,3.5,72,0.00,,,0.02,WeatherDisplay:10.37,2013-05-30 09:07:00,
2013-05-30 11:12:00,57.5,48.2,29.90,WNW,300,6.0,6.0,71,0.00,,,0.02,WeatherDisplay:10.37,2013-05-30 09:12:00,
2013-05-30 11:17:00,57.5,47.8,29.90,WSW,245,9.2,9.2,70,0.00,,,0.02,WeatherDisplay:10.37,2013-05-30 09:17:00,
2013-05-30 11:22:00,57.8,48.1,29.90,WSW,237,8.1,8.1,70,0.00,,,0.02,WeatherDisplay:10.37,2013-05-30 09:22:00,
2013-05-30 11:27:00,58.0,48.3,29.90,SW,220,4.6,4.6,70,0.00,,,0.02,WeatherDisplay:10.37,2013-05-30 09:27:00,
2013-05-30 11:32:00,58.1,48.4,29.90,SW,224,6.0,6.0,70,0.00,,,0.02,WeatherDisplay:10.37,2013-05-30 09:32:00,
2013-05-30 11:37:00,58.4,49.0,29.90,South,181,3.0,3.2,71,0.00,,,0.02,WeatherDisplay:10.37,2013-05-30 09:37:00,
2013-05-30 11:42:00,58.7,48.9,29.90,SSE,166,3.5,3.5,70,0.00,,,0.02,WeatherDisplay:10.37,2013-05-30 09:42:00,
2013-05-30 11:47:00,59.7,49.9,29.90,SSW,208,7.0,7.0,70,0.00,,,0.02,WeatherDisplay:10.37,2013-05-30 09:47:00,
2013-05-30 11:52:00,60.1,49.5,29.90,South,183,4.0,4.0,68,0.00,,,0.02,WeatherDisplay:10.37,2013-05-30 09:52:00,
2013-05-30 11:57:00,60.3,48.5,29.90,SW,235,5.8,5.8,65,0.00,,,0.02,WeatherDisplay:10.37,2013-05-30 09:57:00,
2013-05-30 12:02:00,60.8,49.4,29.90,SW,226,8.0,8.0,66,0.00,,,0.02,WeatherDisplay:10.37,2013-05-30 10:02:00,
2013-05-30 12:07:00,61.0,46.6,29.90,West,270,10.4,10.4,59,0.00,,,0.02,WeatherDisplay:10.37,2013-05-30 10:07:00,
2013-05-30 12:12:00,61.7,45.8,29.90,West,270,10.4,10.4,56,0.00,,,0.02,WeatherDisplay:10.37,2013-05-30 10:12:00,
2013-05-30 12:17:00,61.9,44.6,29.90,SW,232,7.0,7.0,53,0.00,,,0.02,WeatherDisplay:10.37,2013-05-30 10:17:00,
2013-05-30 12:22:00,61.9,44.1,29.90,WSW,251,12.7,12.7,52,0.00,,,0.02,WeatherDisplay:10.37,2013-05-30 10:22:00,
2013-05-30 12:27:00,62.7,45.3,29.90,SW,224,6.9,6.9,53,0.00,,,0.02,WeatherDisplay:10.37,2013-05-30 10:27:00,
2013-05-30 12:32:00,63.9,45.4,29.90,SW,229,8.0,8.0,51,0.00,,,0.02,WeatherDisplay:10.37,2013-05-30 10:32:00,
2013-05-30 12:37:00,63.9,46.4,29.90,SSW,208,12.0,12.0,53,0.00,,,0.02,WeatherDisplay:10.37,2013-05-30 10:37:00,
2013-05-30 12:42:00,63.5,46.1,29.90,SW,231,12.0,12.0,53,0.00,,,0.02,WeatherDisplay:10.37,2013-05-30 10:42:00,
2013-05-30 12:47:00,63.0,46.6,29.90,WSW,255,11.5,11.5,55,0.00,,,0.02,WeatherDisplay:10.37,2013-05-30 10:47:00,
2013-05-30 12:52:00,63.3,45.9,29.90,South,173,9.0,9.0,53,0.00,,,0.02,WeatherDisplay:10.37,2013-05-30 10:52:00,
2013-05-30 12:57:00,63.5,46.6,29.90,South,175,8.1,8.1,54,0.00,,,0.02,WeatherDisplay:10.37,2013-05-30 10:57:00,
2013-05-30 13:02:00,63.5,46.1,29.90,West,273,10.0,10.0,53,0.00,,,0.02,WeatherDisplay:10.37,2013-05-30 11:02:00,
2013-05-30 13:07:00,62.6,45.2,29.90,WSW,249,13.0,13.0,53,0.00,,,0.02,WeatherDisplay:10.37,2013-05-30 11:07:00,
2013-05-30 13:12:00,63.0,46.1,29.90,SSW,205,8.1,8.1,54,0.00,,,0.02,WeatherDisplay:10.37,2013-05-30 11:12:00,
2013-05-30 13:17:00,63.0,44.6,29.90,SW,224,17.3,17.3,51,0.00,,,0.02,WeatherDisplay:10.37,2013-05-30 11:17:00,
2013-05-30 13:22:00,62.9,46.5,29.90,WSW,238,14.0,14.0,55,0.00,,,0.02,WeatherDisplay:10.37,2013-05-30 11:22:00,
2013-05-30 13:27:00,62.8,45.4,29.90,West,280,19.6,19.6,53,0.00,,,0.02,WeatherDisplay:10.37,2013-05-30 11:27:00,
2013-05-30 13:32:00,62.8,46.4,29.90,SSW,201,19.6,19.6,55,0.00,,,0.02,WeatherDisplay:10.37,2013-05-30 11:32:00,
2013-05-30 13:37:00,63.7,45.7,29.90,SW,220,15.0,15.0,52,0.00,,,0.02,WeatherDisplay:10.37,2013-05-30 11:37:00,
2013-05-30 13:42:00,63.1,46.7,29.90,SW,214,15.0,15.0,55,0.00,,,0.02,WeatherDisplay:10.37,2013-05-30 11:42:00,
2013-05-30 13:47:00,64.1,46.6,29.90,SSW,205,19.0,19.0,53,0.00,,,0.02,WeatherDisplay:10.37,2013-05-30 11:47:00,
2013-05-30 13:52:00,63.6,44.6,29.90,WSW,246,27.6,27.6,50,0.01,RA,,0.02,WeatherDisplay:10.37,2013-05-30 11:52:00,
2013-05-30 13:57:00,63.6,45.6,29.90,SW,233,21.9,21.9,52,0.01,RA,,0.02,WeatherDisplay:10.37,2013-05-30 11:57:00,
2013-05-30 14:02:00,63.7,45.7,29.90,WSW,258,15.0,15.0,52,0.01,,,0.02,WeatherDisplay:10.37,2013-05-30 12:02:00,
2013-05-30 14:07:00,64.5,46.5,29.90,WSW,241,18.4,18.4,52,0.01,CLR,,0.02,WeatherDisplay:10.37,2013-05-30 12:07:00,
2013-05-30 14:12:00,65.0,46.4,29.90,SW,224,18.4,18.4,51,0.01,,,0.02,WeatherDisplay:10.37,2013-05-30 12:12:00,
2013-05-30 14:17:00,63.6,45.6,29.89,South,185,25.3,25.3,52,0.01,,,0.02,WeatherDisplay:10.37,2013-05-30 12:17:00,
2013-05-30 14:22:00,64.7,45.6,29.89,WSW,253,20.7,20.7,50,0.01,,,0.02,WeatherDisplay:10.37,2013-05-30 12:22:00,
2013-05-30 14:29:00,65.5,45.8,29.89,NW,314,24.0,24.0,49,0.01,,,0.02,WeatherDisplay:10.37,2013-05-30 12:29:00,
2013-05-30 14:34:00,66.1,43.5,29.90,SSW,201,16.1,16.1,44,0.01,,,0.02,WeatherDisplay:10.37,2013-05-30 12:34:00,
2013-05-30 14:39:00,65.8,45.6,29.90,SW,225,19.6,19.6,48,0.01,,,0.02,WeatherDisplay:10.37,2013-05-30 12:39:00,
2013-05-30 14:44:00,65.6,45.4,29.89,SSW,212,17.3,17.3,48,0.01,,,0.02,WeatherDisplay:10.37,2013-05-30 12:44:00,
2013-05-30 14:49:00,65.2,45.5,29.89,SSW,209,15.0,15.0,49,0.01,,,0.02,WeatherDisplay:10.37,2013-05-30 12:49:00,
2013-05-30 14:54:00,64.4,45.3,29.89,SSW,200,19.6,19.6,50,0.00,,,0.02,WeatherDisplay:10.37,2013-05-30 12:54:00,
2013-05-30 14:59:00,64.5,46.0,29.89,North,359,15.0,15.0,51,0.00,,,0.02,WeatherDisplay:10.37,2013-05-30 12:59:00,
2013-05-30 15:04:00,64.2,46.7,29.89,SW,220,16.1,16.1,53,0.00,,,0.02,WeatherDisplay:10.37,2013-05-30 13:04:00,
2013-05-30 15:09:00,64.2,46.2,29.89,WSW,237,17.0,17.0,52,0.00,,,0.02,WeatherDisplay:10.37,2013-05-30 13:09:00,
2013-05-30 15:14:00,64.8,46.8,29.89,WSW,252,19.6,19.6,52,0.00,,,0.02,WeatherDisplay:10.37,2013-05-30 13:14:00,
2013-05-30 15:19:00,65.6,47.5,29.89,North,354,11.5,11.5,52,0.00,,,0.02,WeatherDisplay:10.37,2013-05-30 13:19:00,
2013-05-30 15:24:00,65.4,47.8,29.89,ENE,58,20.7,20.7,53,0.00,,,0.02,WeatherDisplay:10.37,2013-05-30 13:24:00,
2013-05-30 15:29:00,64.5,47.5,29.90,NE,45,12.0,12.0,54,0.00,,,0.02,WeatherDisplay:10.37,2013-05-30 13:29:00,
2013-05-30 15:34:00,64.0,48.0,29.90,ENE,60,11.5,11.5,56,0.00,,,0.02,WeatherDisplay:10.37,2013-05-30 13:34:00,
2013-05-30 15:39:00,63.4,47.9,29.90,ENE,62,14.0,14.0,57,0.00,,,0.02,WeatherDisplay:10.37,2013-05-30 13:39:00,
2013-05-30 15:44:00,63.3,48.7,29.90,NNE,31,17.3,17.3,59,0.00,,,0.02,WeatherDisplay:10.37,2013-05-30 13:44:00,
2013-05-30 15:49:00,63.0,49.3,29.90,ENE,73,21.9,21.9,61,0.00,,,0.02,WeatherDisplay:10.37,2013-05-30 13:49:00,
2013-05-30 15:54:00,62.2,49.0,29.90,ENE,62,19.0,19.0,62,0.00,,,0.02,WeatherDisplay:10.37,2013-05-30 13:54:00,
2013-05-30 15:59:00,61.5,48.8,29.90,NE,56,23.0,23.0,63,0.00,,,0.02,WeatherDisplay:10.37,2013-05-30 13:59:00,
2013-05-30 16:04:00,61.2,48.9,29.90,East,82,20.7,20.7,64,0.00,,,0.02,WeatherDisplay:10.37,2013-05-30 14:04:00,
2013-05-30 16:09:00,62.1,50.2,29.91,ENE,70,19.6,19.6,65,0.00,,,0.02,WeatherDisplay:10.37,2013-05-30 14:09:00,
2013-05-30 16:14:00,62.0,49.7,29.90,ENE,66,23.0,23.0,64,0.00,,,0.02,WeatherDisplay:10.37,2013-05-30 14:14:00,
2013-05-30 16:19:00,61.6,49.3,29.90,ENE,70,21.0,21.0,64,0.00,,,0.02,WeatherDisplay:10.37,2013-05-30 14:19:00,
2013-05-30 16:24:00,62.1,50.2,29.91,ENE,58,18.4,18.4,65,0.00,,,0.02,WeatherDisplay:10.37,2013-05-30 14:24:00,
2013-05-30 16:29:00,62.3,50.0,29.90,ENE,60,21.9,21.9,64,0.00,,,0.02,WeatherDisplay:10.37,2013-05-30 14:29:00,
2013-05-30 16:34:00,61.1,49.2,29.91,ENE,59,23.0,23.0,65,0.00,,,0.02,WeatherDisplay:10.37,2013-05-30 14:34:00,
2013-05-30 16:39:00,61.3,49.8,29.91,ENE,57,15.0,15.0,66,0.00,,,0.02,WeatherDisplay:10.37,2013-05-30 14:39:00,
2013-05-30 16:44:00,61.4,49.9,29.91,NE,48,16.1,16.1,66,0.00,,,0.02,WeatherDisplay:10.37,2013-05-30 14:44:00,
2013-05-30 16:49:00,60.1,49.1,29.92,NE,48,18.4,18.4,67,0.00,,,0.02,WeatherDisplay:10.37,2013-05-30 14:49:00,
2013-05-30 16:54:00,59.7,49.1,29.92,ENE,64,20.7,20.7,68,0.00,,,0.02,WeatherDisplay:10.37,2013-05-30 14:54:00,
2013-05-30 16:59:00,59.7,49.5,29.92,NE,56,16.1,16.1,69,0.00,,,0.02,WeatherDisplay:10.37,2013-05-30 14:59:00,
2013-05-30 17:04:00,60.0,49.4,29.92,NE,42,20.7,20.7,68,0.00,,,0.02,WeatherDisplay:10.37,2013-05-30 15:04:00,
2013-05-30 17:09:00,60.5,49.9,29.92,ENE,68,17.3,17.3,68,0.00,,,0.02,WeatherDisplay:10.37,2013-05-30 15:09:00,
2013-05-30 17:14:00,60.6,49.6,29.92,ENE,69,17.3,17.3,67,0.00,,,0.02,WeatherDisplay:10.37,2013-05-30 15:14:00,
2013-05-30 17:19:00,60.3,49.7,29.92,East,95,18.4,18.4,68,0.00,,,0.02,WeatherDisplay:10.37,2013-05-30 15:19:00,
2013-05-30 17:24:00,60.5,49.5,29.92,NE,52,17.3,17.3,67,0.00,,,0.02,WeatherDisplay:10.37,2013-05-30 15:24:00,
2013-05-30 17:29:00,60.5,49.5,29.92,NE,55,11.5,11.7,67,0.00,,,0.02,WeatherDisplay:10.37,2013-05-30 15:29:00,
2013-05-30 17:34:00,61.0,50.0,29.92,NE,47,13.8,13.8,67,0.00,,,0.02,WeatherDisplay:10.37,2013-05-30 15:34:00,
2013-05-30 17:39:00,61.1,50.1,29.92,NE,52,12.7,12.7,67,0.00,,,0.02,WeatherDisplay:10.37,2013-05-30 15:39:00,
2013-05-30 17:44:00,61.0,50.0,29.92,ENE,58,10.4,10.4,67,0.00,,,0.02,WeatherDisplay:10.37,2013-05-30 15:44:00,
2013-05-30 17:49:00,60.8,49.4,29.92,East,85,13.0,13.0,66,0.00,,,0.02,WeatherDisplay:10.37,2013-05-30 15:49:00,
2013-05-30 17:54:00,60.1,49.1,29.92,East,83,15.0,15.0,67,0.00,,,0.02,WeatherDisplay:10.37,2013-05-30 15:54:00,
2013-05-30 17:59:00,60.2,49.6,29.92,NE,40,9.2,9.2,68,0.00,,,0.02,WeatherDisplay:10.37,2013-05-30 15:59:00,
2013-05-30 18:04:00,60.5,49.9,29.93,East,87,8.1,8.1,68,0.00,,,0.02,WeatherDisplay:10.37,2013-05-30 16:04:00,
2013-05-30 18:09:00,60.6,50.0,29.93,ESE,114,9.2,9.2,68,0.00,,,0.02,WeatherDisplay:10.37,2013-05-30 16:09:00,
2013-05-30 18:14:00,60.7,50.1,29.93,East,99,8.1,8.1,68,0.00,,,0.02,WeatherDisplay:10.37,2013-05-30 16:14:00,
2013-05-30 18:19:00,60.6,50.0,29.93,SE,125,5.8,5.8,68,0.00,,,0.02,WeatherDisplay:10.37,2013-05-30 16:19:00,
2013-05-30 18:24:00,61.0,50.4,29.93,ENE,73,10.4,10.4,68,0.00,,,0.02,WeatherDisplay:10.37,2013-05-30 16:24:00,
2013-05-30 18:29:00,61.1,50.1,29.93,SE,137,6.9,6.9,67,0.00,,,0.02,WeatherDisplay:10.37,2013-05-30 16:29:00,
2013-05-30 18:34:00,61.3,50.2,29.93,NE,39,11.5,11.5,67,0.00,,,0.02,WeatherDisplay:10.37,2013-05-30 16:34:00,
2013-05-30 18:39:00,61.2,50.2,29.93,ESE,109,12.7,12.7,67,0.00,,,0.02,WeatherDisplay:10.37,2013-05-30 16:39:00,
2013-05-30 18:44:00,60.9,50.3,29.93,NNE,20,10.4,10.4,68,0.00,,,0.02,WeatherDisplay:10.37,2013-05-30 16:44:00,
2013-05-30 18:49:00,60.9,50.3,29.93,ESE,114,8.1,8.1,68,0.00,,,0.02,WeatherDisplay:10.37,2013-05-30 16:49:00,
2013-05-30 18:54:00,60.9,50.3,29.93,SE,131,7.0,7.0,68,0.00,,,0.02,WeatherDisplay:10.37,2013-05-30 16:54:00,
2013-05-30 18:59:00,60.6,50.0,29.93,SE,125,9.2,9.2,68,0.00,,,0.02,WeatherDisplay:10.37,2013-05-30 16:59:00,
2013-05-30 19:04:00,60.5,49.9,29.94,East,91,3.5,3.5,68,0.00,,,0.02,WeatherDisplay:10.37,2013-05-30 17:04:00,
2013-05-30 19:09:00,60.4,49.8,29.94,SE,134,4.6,4.6,68,0.00,,,0.02,WeatherDisplay:10.37,2013-05-30 17:09:00,
2013-05-30 19:14:00,60.6,50.4,29.94,SSE,159,3.5,3.5,69,0.00,,,0.02,WeatherDisplay:10.37,2013-05-30 17:14:00,
2013-05-30 19:19:00,60.9,50.3,29.94,SE,143,8.1,8.1,68,0.00,,,0.02,WeatherDisplay:10.37,2013-05-30 17:19:00,
2013-05-30 19:24:00,60.9,50.7,29.94,SSE,149,3.5,3.5,69,0.00,,,0.02,WeatherDisplay:10.37,2013-05-30 17:24:00,
2013-05-30 19:29:00,60.9,50.3,29.94,East,101,9.2,9.2,68,0.00,,,0.02,WeatherDisplay:10.37,2013-05-30 17:29:00,
2013-05-30 19:34:00,61.0,50.4,29.94,ESE,117,2.0,2.0,68,0.00,,,0.02,WeatherDisplay:10.37,2013-05-30 17:34:00,
2013-05-30 19:39:00,61.1,49.7,29.94,SSE,149,2.3,2.3,66,0.00,,,0.02,WeatherDisplay:10.37,2013-05-30 17:39:00,
2013-05-30 19:44:00,61.2,49.7,29.94,ESE,108,7.0,7.0,66,0.00,,,0.02,WeatherDisplay:10.37,2013-05-30 17:44:00,
2013-05-30 19:49:00,60.9,50.3,29.94,ESE,118,4.6,4.6,68,0.00,,,0.02,WeatherDisplay:10.37,2013-05-30 17:49:00,
2013-05-30 19:54:00,60.7,50.5,29.94,East,92,6.9,6.9,69,0.00,,,0.02,WeatherDisplay:10.37,2013-05-30 17:54:00,
2013-05-30 19:59:00,60.3,50.9,29.94,ESE,108,5.0,5.0,71,0.00,,,0.02,WeatherDisplay:10.37,2013-05-30 17:59:00,
2013-05-30 20:04:00,60.1,50.7,29.94,SE,129,3.5,3.5,71,0.00,,,0.02,WeatherDisplay:10.37,2013-05-30 18:04:00,
2013-05-30 20:09:00,60.1,50.7,29.94,SSW,206,3.5,3.5,71,0.00,,,0.02,WeatherDisplay:10.37,2013-05-30 18:09:00,
2013-05-30 20:14:00,60.9,49.9,29.94,West,278,2.3,2.3,67,0.00,,,0.02,WeatherDisplay:10.37,2013-05-30 18:14:00,
2013-05-30 20:19:00,61.9,50.8,29.94,SW,218,4.6,4.6,67,0.00,,,0.02,WeatherDisplay:10.37,2013-05-30 18:19:00,
2013-05-30 20:24:00,61.7,50.6,29.94,SE,143,3.5,3.5,67,0.00,,,0.02,WeatherDisplay:10.37,2013-05-30 18:24:00,
2013-05-30 20:29:00,61.4,50.3,29.94,SSW,204,6.9,6.9,67,0.00,,,0.02,WeatherDisplay:10.37,2013-05-30 18:29:00,
2013-05-30 20:34:00,61.3,49.8,29.94,West,274,6.9,6.9,66,0.00,,,0.02,WeatherDisplay:10.37,2013-05-30 18:34:00,
2013-05-30 20:39:00,61.2,49.3,29.94,SW,234,11.5,11.5,65,0.00,,,0.02,WeatherDisplay:10.37,2013-05-30 18:39:00,
2013-05-30 20:44:00,60.5,48.7,29.94,West,265,16.1,16.1,65,0.00,,,0.02,WeatherDisplay:10.37,2013-05-30 18:44:00,
2013-05-30 20:49:00,60.1,48.7,29.94,West,268,13.0,13.0,66,0.00,,,0.02,WeatherDisplay:10.37,2013-05-30 18:49:00,
2013-05-30 20:54:00,59.8,48.8,29.94,West,268,12.7,12.7,67,0.00,,,0.02,WeatherDisplay:10.37,2013-05-30 18:54:00,
2013-05-30 20:59:00,59.5,48.9,29.94,WSW,241,15.0,15.0,68,0.00,,,0.02,WeatherDisplay:10.37,2013-05-30 18:59:00,
2013-05-30 21:04:00,59.3,48.7,29.94,WSW,256,12.7,12.7,68,0.00,,,0.02,WeatherDisplay:10.37,2013-05-30 19:04:00,
2013-05-30 21:09:00,59.2,49.0,29.94,WSW,250,19.6,19.6,69,0.00,,,0.02,WeatherDisplay:10.37,2013-05-30 19:09:00,
2013-05-30 21:14:00,59.1,48.9,29.94,WNW,299,16.1,16.1,69,0.00,,,0.02,WeatherDisplay:10.37,2013-05-30 19:14:00,
2013-05-30 21:19:00,59.0,48.8,29.94,West,272,15.0,15.0,69,0.00,,,0.02,WeatherDisplay:10.37,2013-05-30 19:19:00,
2013-05-30 21:24:00,58.9,48.7,29.94,WNW,290,16.1,16.1,69,0.00,,,0.02,WeatherDisplay:10.37,2013-05-30 19:24:00,
2013-05-30 21:29:00,58.7,48.9,29.94,West,274,18.4,18.4,70,0.00,,,0.02,WeatherDisplay:10.37,2013-05-30 19:29:00,
2013-05-30 21:34:00,58.6,48.8,29.94,WNW,293,16.1,16.1,70,0.00,,,0.02,WeatherDisplay:10.37,2013-05-30 19:34:00,
2013-05-30 21:39:00,58.5,48.7,29.94,WNW,292,13.8,13.8,70,0.00,,,0.02,WeatherDisplay:10.37,2013-05-30 19:39:00,
2013-05-30 21:44:00,58.4,48.3,29.94,WNW,290,18.4,18.4,69,0.00,,,0.02,WeatherDisplay:10.37,2013-05-30 19:44:00,
2013-05-30 21:49:00,58.4,48.3,29.94,WNW,287,18.4,18.4,69,0.00,,,0.02,WeatherDisplay:10.37,2013-05-30 19:49:00,
2013-05-30 21:54:00,58.4,48.3,29.94,West,263,17.3,17.3,69,0.00,,,0.02,WeatherDisplay:10.37,2013-05-30 19:54:00,
2013-05-30 21:59:00,58.4,48.3,29.95,WSW,252,19.6,19.6,69,0.00,,,0.02,WeatherDisplay:10.37,2013-05-30 19:59:00,
2013-05-30 22:04:00,58.3,48.2,29.95,WNW,282,18.4,18.4,69,0.00,,,0.02,WeatherDisplay:10.37,2013-05-30 20:04:00,
2013-05-30 22:09:00,58.3,48.2,29.95,WNW,282,16.1,16.1,69,0.00,,,0.02,WeatherDisplay:10.37,2013-05-30 20:09:00,
2013-05-30 22:14:00,58.2,48.1,29.95,NNW,332,16.1,16.1,69,0.00,,,0.02,WeatherDisplay:10.37,2013-05-30 20:14:00,
2013-05-30 22:19:00,58.1,48.0,29.95,WNW,282,18.4,18.4,69,0.00,,,0.02,WeatherDisplay:10.37,2013-05-30 20:19:00,
2013-05-30 22:24:00,58.2,48.1,29.95,West,277,18.4,18.4,69,0.00,,,0.02,WeatherDisplay:10.37,2013-05-30 20:24:00,
2013-05-30 22:29:00,58.2,47.7,29.95,West,274,17.3,17.3,68,0.00,,,0.02,WeatherDisplay:10.37,2013-05-30 20:29:00,
2013-05-30 22:34:00,58.0,47.9,29.95,West,274,16.1,16.1,69,0.00,,,0.02,WeatherDisplay:10.37,2013-05-30 20:34:00,
2013-05-30 22:39:00,58.0,47.9,29.95,NNE,14,14.0,14.0,69,0.00,,,0.02,WeatherDisplay:10.37,2013-05-30 20:39:00,
2013-05-30 22:44:00,58.0,47.5,29.95,WNW,287,18.4,18.4,68,0.00,,,0.02,WeatherDisplay:10.37,2013-05-30 20:44:00,
2013-05-30 22:49:00,58.0,47.5,29.96,West,266,17.3,17.3,68,0.00,,,0.02,WeatherDisplay:10.37,2013-05-30 20:49:00,
2013-05-30 22:54:00,57.9,47.4,29.96,WNW,301,18.4,18.4,68,0.00,,,0.02,WeatherDisplay:10.37,2013-05-30 20:54:00,
2013-05-30 22:59:00,58.1,47.2,29.96,West,280,18.4,18.4,67,0.00,,,0.02,WeatherDisplay:10.37,2013-05-30 20:59:00,
2013-05-30 23:04:00,58.2,47.3,29.96,West,270,16.1,16.1,67,0.00,,,0.02,WeatherDisplay:10.37,2013-05-30 21:04:00,
2013-05-30 23:09:00,58.2,47.3,29.96,West,260,18.4,18.4,67,0.00,,,0.02,WeatherDisplay:10.37,2013-05-30 21:09:00,
2013-05-30 23:14:00,58.3,47.4,29.96,WNW,293,15.0,15.0,67,0.00,,,0.02,WeatherDisplay:10.37,2013-05-30 21:14:00,
2013-05-30 23:19:00,58.3,47.4,29.96,West,273,15.0,15.0,67,0.00,,,0.02,WeatherDisplay:10.37,2013-05-30 21:19:00,
2013-05-30 23:24:00,58.5,47.6,29.96,West,278,16.1,16.1,67,0.00,,,0.02,WeatherDisplay:10.37,2013-05-30 21:24:00,
2013-05-30 23:29:00,58.6,48.1,29.96,NNE,22,15.0,15.0,68,0.00,,,0.02,WeatherDisplay:10.37,2013-05-30 21:29:00,
2013-05-30 23:34:00,58.7,48.6,29.96,NW,311,15.0,15.0,69,0.00,,,0.02,WeatherDisplay:10.37,2013-05-30 21:34:00,
2013-05-30 23:39:00,58.7,48.9,29.96,West,270,15.0,15.0,70,0.00,,,0.02,WeatherDisplay:10.37,2013-05-30 21:39:00,
2013-05-30 23:44:00,58.8,49.0,29.95,West,280,16.1,16.1,70,0.00,,,0.02,WeatherDisplay:10.37,2013-05-30 21:44:00,
2013-05-30 23:49:00,59.0,49.2,29.96,West,263,12.7,12.7,70,0.00,,,0.02,WeatherDisplay:10.37,2013-05-30 21:49:00,
2013-05-30 23:54:00,59.0,49.2,29.96,WNW,299,13.0,13.0,70,0.00,,,0.02,WeatherDisplay:10.37,2013-05-30 21:54:00,
2013-05-30 23:59:00,59.0,49.2,29.95,West,274,12.7,12.7,70,0.00,,,0.02,WeatherDisplay:10.37,2013-05-30 21:59:00,